sensor_id;sensor_type;location;lat;lon;timestamp;P1;durP1;ratioP1;P2;durP2;ratioP2
65753;SDS011;69207;47.502;18.940;2023-08-06T00:00:26;11.73;;;6.03;;
65753;SDS011;69207;47.502;18.940;2023-08-06T00:01:29;8.20;;;6.03;;
65753;SDS011;69207;47.502;18.940;2023-08-06T00:02:32;33.78;;;6.75;;
65753;SDS011;69207;47.502;18.940;2023-08-06T00:03:35;12.27;;;6.43;;
65753;SDS011;69207;47.502;18.940;2023-08-06T00:04:38;13.57;;;6.50;;
65753;SDS011;69207;47.502;18.940;2023-08-06T00:05:42;176.45;;;10.45;;
65753;SDS011;69207;47.502;18.940;2023-08-06T00:06:45;64.20;;;8.05;;
65753;SDS011;69207;47.502;18.940;2023-08-06T00:07:48;15.10;;;7.40;;
65753;SDS011;69207;47.502;18.940;2023-08-06T00:08:51;39.70;;;6.97;;
65753;SDS011;69207;47.502;18.940;2023-08-06T00:09:54;11.00;;;6.35;;
65753;SDS011;69207;47.502;18.940;2023-08-06T00:10:57;41.13;;;7.80;;
65753;SDS011;69207;47.502;18.940;2023-08-06T00:11:59;24.30;;;7.45;;
65753;SDS011;69207;47.502;18.940;2023-08-06T00:13:02;41.28;;;7.90;;
65753;SDS011;69207;47.502;18.940;2023-08-06T00:14:05;91.05;;;8.65;;
65753;SDS011;69207;47.502;18.940;2023-08-06T00:15:09;36.88;;;7.53;;
65753;SDS011;69207;47.502;18.940;2023-08-06T00:16:12;25.48;;;6.78;;
65753;SDS011;69207;47.502;18.940;2023-08-06T00:17:16;59.30;;;7.90;;
65753;SDS011;69207;47.502;18.940;2023-08-06T00:18:19;225.60;;;12.65;;
65753;SDS011;69207;47.502;18.940;2023-08-06T00:19:21;43.25;;;8.35;;
65753;SDS011;69207;47.502;18.940;2023-08-06T00:20:24;17.92;;;6.50;;
65753;SDS011;69207;47.502;18.940;2023-08-06T00:21:27;101.10;;;9.15;;
65753;SDS011;69207;47.502;18.940;2023-08-06T00:22:30;307.33;;;14.40;;
65753;SDS011;69207;47.502;18.940;2023-08-06T00:23:34;70.55;;;7.95;;
65753;SDS011;69207;47.502;18.940;2023-08-06T00:24:37;88.32;;;8.07;;
65753;SDS011;69207;47.502;18.940;2023-08-06T00:25:39;109.70;;;8.50;;
65753;SDS011;69207;47.502;18.940;2023-08-06T00:26:42;91.87;;;7.78;;
65753;SDS011;69207;47.502;18.940;2023-08-06T00:27:45;122.72;;;9.52;;
65753;SDS011;69207;47.502;18.940;2023-08-06T00:28:48;50.25;;;7.25;;
65753;SDS011;69207;47.502;18.940;2023-08-06T00:29:51;37.30;;;6.78;;
65753;SDS011;69207;47.502;18.940;2023-08-06T00:30:54;15.82;;;6.75;;
65753;SDS011;69207;47.502;18.940;2023-08-06T00:31:58;88.47;;;8.98;;
65753;SDS011;69207;47.502;18.940;2023-08-06T00:33:00;12.82;;;7.60;;
65753;SDS011;69207;47.502;18.940;2023-08-06T00:34:03;47.88;;;8.07;;
65753;SDS011;69207;47.502;18.940;2023-08-06T00:35:06;12.13;;;7.20;;
65753;SDS011;69207;47.502;18.940;2023-08-06T00:36:09;23.40;;;7.32;;
65753;SDS011;69207;47.502;18.940;2023-08-06T00:37:12;19.98;;;7.55;;
65753;SDS011;69207;47.502;18.940;2023-08-06T00:38:15;19.87;;;7.45;;
65753;SDS011;69207;47.502;18.940;2023-08-06T00:39:18;32.08;;;8.40;;
65753;SDS011;69207;47.502;18.940;2023-08-06T00:40:20;35.20;;;7.80;;
65753;SDS011;69207;47.502;18.940;2023-08-06T00:41:25;38.78;;;8.60;;
65753;SDS011;69207;47.502;18.940;2023-08-06T00:42:27;11.27;;;8.00;;
65753;SDS011;69207;47.502;18.940;2023-08-06T00:43:30;14.38;;;8.32;;
65753;SDS011;69207;47.502;18.940;2023-08-06T00:44:33;18.48;;;7.97;;
65753;SDS011;69207;47.502;18.940;2023-08-06T00:45:36;10.55;;;8.18;;
65753;SDS011;69207;47.502;18.940;2023-08-06T00:46:39;9.32;;;7.72;;
65753;SDS011;69207;47.502;18.940;2023-08-06T00:47:42;10.82;;;7.60;;
65753;SDS011;69207;47.502;18.940;2023-08-06T00:48:45;11.63;;;8.32;;
65753;SDS011;69207;47.502;18.940;2023-08-06T00:49:48;11.25;;;7.55;;
65753;SDS011;69207;47.502;18.940;2023-08-06T00:50:51;13.88;;;8.20;;
65753;SDS011;69207;47.502;18.940;2023-08-06T00:51:54;11.48;;;7.93;;
65753;SDS011;69207;47.502;18.940;2023-08-06T00:52:58;9.93;;;7.32;;
65753;SDS011;69207;47.502;18.940;2023-08-06T00:54:02;10.00;;;7.50;;
65753;SDS011;69207;47.502;18.940;2023-08-06T00:55:05;11.35;;;7.95;;
65753;SDS011;69207;47.502;18.940;2023-08-06T00:56:09;10.50;;;7.78;;
65753;SDS011;69207;47.502;18.940;2023-08-06T00:57:12;11.73;;;7.15;;
65753;SDS011;69207;47.502;18.940;2023-08-06T00:58:15;9.68;;;7.05;;
65753;SDS011;69207;47.502;18.940;2023-08-06T00:59:19;9.88;;;7.55;;
65753;SDS011;69207;47.502;18.940;2023-08-06T01:00:22;10.70;;;6.97;;
65753;SDS011;69207;47.502;18.940;2023-08-06T01:01:27;12.02;;;7.75;;
65753;SDS011;69207;47.502;18.940;2023-08-06T01:02:29;8.73;;;7.20;;
65753;SDS011;69207;47.502;18.940;2023-08-06T01:03:32;14.73;;;7.40;;
65753;SDS011;69207;47.502;18.940;2023-08-06T01:04:35;12.02;;;7.50;;
65753;SDS011;69207;47.502;18.940;2023-08-06T01:05:38;10.52;;;6.93;;
65753;SDS011;69207;47.502;18.940;2023-08-06T01:09:45;9.18;;;7.10;;
65753;SDS011;69207;47.502;18.940;2023-08-06T01:11:00;8.73;;;6.32;;
65753;SDS011;69207;47.502;18.940;2023-08-06T01:15:58;10.52;;;6.40;;
65753;SDS011;69207;47.502;18.940;2023-08-06T01:17:03;11.40;;;6.78;;
65753;SDS011;69207;47.502;18.940;2023-08-06T01:18:07;8.45;;;6.22;;
65753;SDS011;69207;47.502;18.940;2023-08-06T01:19:17;8.82;;;6.53;;
65753;SDS011;69207;47.502;18.940;2023-08-06T01:20:20;9.02;;;6.35;;
65753;SDS011;69207;47.502;18.940;2023-08-06T01:21:23;9.80;;;6.40;;
65753;SDS011;69207;47.502;18.940;2023-08-06T01:22:26;7.80;;;6.18;;
65753;SDS011;69207;47.502;18.940;2023-08-06T01:23:29;10.75;;;7.37;;
65753;SDS011;69207;47.502;18.940;2023-08-06T01:24:32;8.80;;;6.53;;
65753;SDS011;69207;47.502;18.940;2023-08-06T01:27:06;12.48;;;6.72;;
65753;SDS011;69207;47.502;18.940;2023-08-06T01:28:18;8.30;;;6.32;;
65753;SDS011;69207;47.502;18.940;2023-08-06T01:29:47;16.50;;;6.75;;
65753;SDS011;69207;47.502;18.940;2023-08-06T01:32:02;7.65;;;5.50;;
65753;SDS011;69207;47.502;18.940;2023-08-06T01:33:07;10.60;;;5.12;;
65753;SDS011;69207;47.502;18.940;2023-08-06T01:34:17;7.68;;;5.62;;
65753;SDS011;69207;47.502;18.940;2023-08-06T01:35:24;9.65;;;6.00;;
65753;SDS011;69207;47.502;18.940;2023-08-06T01:36:29;7.55;;;5.57;;
65753;SDS011;69207;47.502;18.940;2023-08-06T01:37:32;9.30;;;5.78;;
65753;SDS011;69207;47.502;18.940;2023-08-06T01:38:36;8.65;;;5.90;;
65753;SDS011;69207;47.502;18.940;2023-08-06T01:39:39;6.93;;;5.30;;
65753;SDS011;69207;47.502;18.940;2023-08-06T01:40:45;7.95;;;5.47;;
65753;SDS011;69207;47.502;18.940;2023-08-06T01:41:48;10.30;;;5.78;;
65753;SDS011;69207;47.502;18.940;2023-08-06T01:42:51;9.82;;;5.85;;
65753;SDS011;69207;47.502;18.940;2023-08-06T01:43:54;10.38;;;5.37;;
65753;SDS011;69207;47.502;18.940;2023-08-06T01:44:56;8.13;;;5.45;;
65753;SDS011;69207;47.502;18.940;2023-08-06T01:45:59;8.10;;;5.75;;
65753;SDS011;69207;47.502;18.940;2023-08-06T01:47:02;6.37;;;5.20;;
65753;SDS011;69207;47.502;18.940;2023-08-06T01:48:05;9.27;;;5.87;;
65753;SDS011;69207;47.502;18.940;2023-08-06T01:49:08;9.80;;;6.75;;
65753;SDS011;69207;47.502;18.940;2023-08-06T01:50:11;12.48;;;5.70;;
65753;SDS011;69207;47.502;18.940;2023-08-06T01:51:13;9.90;;;6.00;;
65753;SDS011;69207;47.502;18.940;2023-08-06T01:52:16;13.62;;;6.32;;
65753;SDS011;69207;47.502;18.940;2023-08-06T01:53:19;13.75;;;5.78;;
65753;SDS011;69207;47.502;18.940;2023-08-06T01:54:22;10.68;;;6.00;;
65753;SDS011;69207;47.502;18.940;2023-08-06T01:55:25;9.15;;;5.60;;
65753;SDS011;69207;47.502;18.940;2023-08-06T01:56:27;7.70;;;5.53;;
65753;SDS011;69207;47.502;18.940;2023-08-06T01:57:30;7.62;;;5.72;;
65753;SDS011;69207;47.502;18.940;2023-08-06T01:58:33;7.15;;;5.87;;
65753;SDS011;69207;47.502;18.940;2023-08-06T01:59:36;8.45;;;5.50;;
65753;SDS011;69207;47.502;18.940;2023-08-06T02:00:39;8.30;;;5.78;;
65753;SDS011;69207;47.502;18.940;2023-08-06T02:01:42;9.13;;;6.03;;
65753;SDS011;69207;47.502;18.940;2023-08-06T02:02:45;8.55;;;5.55;;
65753;SDS011;69207;47.502;18.940;2023-08-06T02:03:48;12.88;;;5.75;;
65753;SDS011;69207;47.502;18.940;2023-08-06T02:04:51;10.23;;;6.18;;
65753;SDS011;69207;47.502;18.940;2023-08-06T02:05:54;8.20;;;5.62;;
65753;SDS011;69207;47.502;18.940;2023-08-06T02:06:57;8.82;;;5.40;;
65753;SDS011;69207;47.502;18.940;2023-08-06T02:07:59;7.18;;;5.35;;
65753;SDS011;69207;47.502;18.940;2023-08-06T02:09:02;9.20;;;5.80;;
65753;SDS011;69207;47.502;18.940;2023-08-06T02:10:05;9.23;;;5.62;;
65753;SDS011;69207;47.502;18.940;2023-08-06T02:11:09;6.53;;;5.65;;
65753;SDS011;69207;47.502;18.940;2023-08-06T02:12:11;7.22;;;5.25;;
65753;SDS011;69207;47.502;18.940;2023-08-06T02:13:14;9.85;;;5.47;;
65753;SDS011;69207;47.502;18.940;2023-08-06T02:14:17;7.68;;;5.45;;
65753;SDS011;69207;47.502;18.940;2023-08-06T02:15:19;8.00;;;5.22;;
65753;SDS011;69207;47.502;18.940;2023-08-06T02:16:22;7.45;;;5.37;;
65753;SDS011;69207;47.502;18.940;2023-08-06T02:17:25;7.15;;;5.45;;
65753;SDS011;69207;47.502;18.940;2023-08-06T02:18:28;7.43;;;5.28;;
65753;SDS011;69207;47.502;18.940;2023-08-06T02:19:31;7.32;;;5.30;;
65753;SDS011;69207;47.502;18.940;2023-08-06T02:20:34;8.60;;;5.28;;
65753;SDS011;69207;47.502;18.940;2023-08-06T02:21:36;9.27;;;5.07;;
65753;SDS011;69207;47.502;18.940;2023-08-06T02:22:39;10.38;;;5.95;;
65753;SDS011;69207;47.502;18.940;2023-08-06T02:23:42;9.05;;;5.30;;
65753;SDS011;69207;47.502;18.940;2023-08-06T02:24:45;7.82;;;5.00;;
65753;SDS011;69207;47.502;18.940;2023-08-06T02:25:48;11.35;;;5.37;;
65753;SDS011;69207;47.502;18.940;2023-08-06T02:26:50;6.93;;;5.10;;
65753;SDS011;69207;47.502;18.940;2023-08-06T02:27:53;7.45;;;5.22;;
65753;SDS011;69207;47.502;18.940;2023-08-06T02:28:56;6.55;;;5.20;;
65753;SDS011;69207;47.502;18.940;2023-08-06T02:29:59;6.85;;;5.18;;
65753;SDS011;69207;47.502;18.940;2023-08-06T02:31:02;6.87;;;4.70;;
65753;SDS011;69207;47.502;18.940;2023-08-06T02:32:05;7.62;;;4.93;;
65753;SDS011;69207;47.502;18.940;2023-08-06T02:33:08;7.00;;;5.18;;
65753;SDS011;69207;47.502;18.940;2023-08-06T02:34:11;6.72;;;5.03;;
65753;SDS011;69207;47.502;18.940;2023-08-06T02:35:14;8.35;;;4.70;;
65753;SDS011;69207;47.502;18.940;2023-08-06T02:36:17;8.48;;;4.87;;
65753;SDS011;69207;47.502;18.940;2023-08-06T02:37:20;10.05;;;5.20;;
65753;SDS011;69207;47.502;18.940;2023-08-06T02:38:23;8.77;;;4.85;;
65753;SDS011;69207;47.502;18.940;2023-08-06T02:39:25;8.05;;;5.57;;
65753;SDS011;69207;47.502;18.940;2023-08-06T02:40:28;6.85;;;5.05;;
65753;SDS011;69207;47.502;18.940;2023-08-06T02:41:31;8.43;;;5.12;;
65753;SDS011;69207;47.502;18.940;2023-08-06T02:42:34;6.55;;;5.25;;
65753;SDS011;69207;47.502;18.940;2023-08-06T02:43:37;6.25;;;4.62;;
65753;SDS011;69207;47.502;18.940;2023-08-06T02:44:40;7.57;;;5.22;;
65753;SDS011;69207;47.502;18.940;2023-08-06T02:45:43;6.72;;;5.15;;
65753;SDS011;69207;47.502;18.940;2023-08-06T02:46:45;9.60;;;5.07;;
65753;SDS011;69207;47.502;18.940;2023-08-06T02:47:48;8.00;;;5.30;;
65753;SDS011;69207;47.502;18.940;2023-08-06T02:48:53;6.10;;;4.62;;
65753;SDS011;69207;47.502;18.940;2023-08-06T02:49:56;7.85;;;4.93;;
65753;SDS011;69207;47.502;18.940;2023-08-06T02:50:59;7.57;;;5.28;;
65753;SDS011;69207;47.502;18.940;2023-08-06T02:52:02;9.73;;;5.20;;
65753;SDS011;69207;47.502;18.940;2023-08-06T02:53:06;9.05;;;5.10;;
65753;SDS011;69207;47.502;18.940;2023-08-06T02:54:09;7.10;;;5.10;;
65753;SDS011;69207;47.502;18.940;2023-08-06T02:55:12;10.38;;;5.30;;
65753;SDS011;69207;47.502;18.940;2023-08-06T02:56:15;10.80;;;5.70;;
65753;SDS011;69207;47.502;18.940;2023-08-06T02:57:17;6.15;;;4.70;;
65753;SDS011;69207;47.502;18.940;2023-08-06T02:58:20;7.60;;;4.57;;
65753;SDS011;69207;47.502;18.940;2023-08-06T02:59:24;7.35;;;5.25;;
65753;SDS011;69207;47.502;18.940;2023-08-06T03:00:27;7.37;;;4.95;;
65753;SDS011;69207;47.502;18.940;2023-08-06T03:01:30;7.65;;;5.28;;
65753;SDS011;69207;47.502;18.940;2023-08-06T03:02:33;9.38;;;4.72;;
65753;SDS011;69207;47.502;18.940;2023-08-06T03:03:36;7.43;;;5.15;;
65753;SDS011;69207;47.502;18.940;2023-08-06T03:04:39;7.53;;;5.18;;
65753;SDS011;69207;47.502;18.940;2023-08-06T03:05:50;8.65;;;5.35;;
65753;SDS011;69207;47.502;18.940;2023-08-06T03:06:54;6.62;;;5.18;;
65753;SDS011;69207;47.502;18.940;2023-08-06T03:07:57;13.98;;;5.90;;
65753;SDS011;69207;47.502;18.940;2023-08-06T03:09:00;16.95;;;6.07;;
65753;SDS011;69207;47.502;18.940;2023-08-06T03:10:03;11.52;;;5.93;;
65753;SDS011;69207;47.502;18.940;2023-08-06T03:11:06;14.55;;;6.05;;
65753;SDS011;69207;47.502;18.940;2023-08-06T03:12:09;11.77;;;5.93;;
65753;SDS011;69207;47.502;18.940;2023-08-06T03:13:12;12.82;;;5.93;;
65753;SDS011;69207;47.502;18.940;2023-08-06T03:14:15;13.93;;;6.20;;
65753;SDS011;69207;47.502;18.940;2023-08-06T03:15:17;20.92;;;7.00;;
65753;SDS011;69207;47.502;18.940;2023-08-06T03:16:20;12.20;;;5.57;;
65753;SDS011;69207;47.502;18.940;2023-08-06T03:17:23;15.80;;;5.75;;
65753;SDS011;69207;47.502;18.940;2023-08-06T03:18:26;9.57;;;6.00;;
65753;SDS011;69207;47.502;18.940;2023-08-06T03:19:29;12.57;;;5.80;;
65753;SDS011;69207;47.502;18.940;2023-08-06T03:20:32;11.63;;;5.90;;
65753;SDS011;69207;47.502;18.940;2023-08-06T03:21:35;8.40;;;5.65;;
65753;SDS011;69207;47.502;18.940;2023-08-06T03:22:37;12.65;;;5.28;;
65753;SDS011;69207;47.502;18.940;2023-08-06T03:23:40;10.15;;;5.60;;
65753;SDS011;69207;47.502;18.940;2023-08-06T03:24:43;10.15;;;5.70;;
65753;SDS011;69207;47.502;18.940;2023-08-06T03:25:46;11.40;;;5.35;;
65753;SDS011;69207;47.502;18.940;2023-08-06T03:26:49;8.93;;;5.53;;
65753;SDS011;69207;47.502;18.940;2023-08-06T03:27:51;8.88;;;5.62;;
65753;SDS011;69207;47.502;18.940;2023-08-06T03:28:54;7.35;;;5.62;;
65753;SDS011;69207;47.502;18.940;2023-08-06T03:29:57;21.25;;;6.18;;
65753;SDS011;69207;47.502;18.940;2023-08-06T03:31:00;16.67;;;6.15;;
65753;SDS011;69207;47.502;18.940;2023-08-06T03:32:06;15.48;;;6.53;;
65753;SDS011;69207;47.502;18.940;2023-08-06T03:33:09;34.38;;;7.47;;
65753;SDS011;69207;47.502;18.940;2023-08-06T03:34:12;47.20;;;6.85;;
65753;SDS011;69207;47.502;18.940;2023-08-06T03:35:14;109.47;;;8.82;;
65753;SDS011;69207;47.502;18.940;2023-08-06T03:36:17;20.17;;;6.03;;
65753;SDS011;69207;47.502;18.940;2023-08-06T03:37:20;24.87;;;6.85;;
65753;SDS011;69207;47.502;18.940;2023-08-06T03:38:22;55.97;;;7.72;;
65753;SDS011;69207;47.502;18.940;2023-08-06T03:39:25;16.05;;;6.22;;
65753;SDS011;69207;47.502;18.940;2023-08-06T03:40:28;31.58;;;7.15;;
65753;SDS011;69207;47.502;18.940;2023-08-06T03:41:31;26.60;;;6.93;;
65753;SDS011;69207;47.502;18.940;2023-08-06T03:42:34;49.42;;;7.32;;
65753;SDS011;69207;47.502;18.940;2023-08-06T03:43:36;73.22;;;7.57;;
65753;SDS011;69207;47.502;18.940;2023-08-06T03:44:39;22.30;;;6.82;;
65753;SDS011;69207;47.502;18.940;2023-08-06T03:45:42;11.07;;;6.45;;
65753;SDS011;69207;47.502;18.940;2023-08-06T03:46:45;16.48;;;6.87;;
65753;SDS011;69207;47.502;18.940;2023-08-06T03:47:47;63.08;;;7.53;;
65753;SDS011;69207;47.502;18.940;2023-08-06T03:48:50;72.05;;;8.25;;
65753;SDS011;69207;47.502;18.940;2023-08-06T03:49:53;147.50;;;9.90;;
65753;SDS011;69207;47.502;18.940;2023-08-06T03:50:56;87.30;;;8.25;;
65753;SDS011;69207;47.502;18.940;2023-08-06T03:51:59;64.10;;;8.02;;
65753;SDS011;69207;47.502;18.940;2023-08-06T03:53:02;11.65;;;6.75;;
65753;SDS011;69207;47.502;18.940;2023-08-06T03:54:05;12.50;;;6.87;;
65753;SDS011;69207;47.502;18.940;2023-08-06T03:55:08;20.02;;;5.95;;
65753;SDS011;69207;47.502;18.940;2023-08-06T03:56:10;8.63;;;6.68;;
65753;SDS011;69207;47.502;18.940;2023-08-06T03:57:13;9.23;;;6.80;;
65753;SDS011;69207;47.502;18.940;2023-08-06T03:58:16;8.00;;;5.28;;
65753;SDS011;69207;47.502;18.940;2023-08-06T03:59:18;7.22;;;5.12;;
65753;SDS011;69207;47.502;18.940;2023-08-06T04:00:21;10.02;;;5.35;;
65753;SDS011;69207;47.502;18.940;2023-08-06T04:01:24;6.85;;;5.40;;
65753;SDS011;69207;47.502;18.940;2023-08-06T04:02:27;6.40;;;5.22;;
65753;SDS011;69207;47.502;18.940;2023-08-06T04:03:30;7.70;;;5.65;;
65753;SDS011;69207;47.502;18.940;2023-08-06T04:04:33;7.70;;;5.28;;
65753;SDS011;69207;47.502;18.940;2023-08-06T04:05:35;6.45;;;5.20;;
65753;SDS011;69207;47.502;18.940;2023-08-06T04:06:38;9.82;;;5.47;;
65753;SDS011;69207;47.502;18.940;2023-08-06T04:07:40;7.35;;;5.30;;
65753;SDS011;69207;47.502;18.940;2023-08-06T04:08:43;6.82;;;5.05;;
65753;SDS011;69207;47.502;18.940;2023-08-06T04:09:56;9.55;;;5.05;;
65753;SDS011;69207;47.502;18.940;2023-08-06T04:11:01;5.90;;;4.30;;
65753;SDS011;69207;47.502;18.940;2023-08-06T04:12:04;9.50;;;4.32;;
65753;SDS011;69207;47.502;18.940;2023-08-06T04:13:07;5.50;;;4.18;;
65753;SDS011;69207;47.502;18.940;2023-08-06T04:14:10;8.18;;;4.05;;
65753;SDS011;69207;47.502;18.940;2023-08-06T04:15:12;5.95;;;4.05;;
65753;SDS011;69207;47.502;18.940;2023-08-06T04:16:15;5.00;;;3.67;;
65753;SDS011;69207;47.502;18.940;2023-08-06T04:17:18;6.50;;;3.45;;
65753;SDS011;69207;47.502;18.940;2023-08-06T04:18:23;6.97;;;4.50;;
65753;SDS011;69207;47.502;18.940;2023-08-06T04:19:27;5.80;;;4.22;;
65753;SDS011;69207;47.502;18.940;2023-08-06T04:20:30;5.00;;;3.60;;
65753;SDS011;69207;47.502;18.940;2023-08-06T04:21:33;5.93;;;4.00;;
65753;SDS011;69207;47.502;18.940;2023-08-06T04:22:35;6.57;;;4.07;;
65753;SDS011;69207;47.502;18.940;2023-08-06T04:23:38;6.20;;;3.83;;
65753;SDS011;69207;47.502;18.940;2023-08-06T04:24:41;4.53;;;3.50;;
65753;SDS011;69207;47.502;18.940;2023-08-06T04:25:45;4.78;;;3.67;;
65753;SDS011;69207;47.502;18.940;2023-08-06T04:26:48;8.73;;;3.30;;
65753;SDS011;69207;47.502;18.940;2023-08-06T04:27:51;3.97;;;3.22;;
65753;SDS011;69207;47.502;18.940;2023-08-06T04:28:53;4.78;;;2.97;;
65753;SDS011;69207;47.502;18.940;2023-08-06T04:29:56;4.40;;;2.70;;
65753;SDS011;69207;47.502;18.940;2023-08-06T04:30:59;4.22;;;3.12;;
65753;SDS011;69207;47.502;18.940;2023-08-06T04:32:06;3.05;;;2.60;;
65753;SDS011;69207;47.502;18.940;2023-08-06T04:33:10;6.70;;;2.35;;
65753;SDS011;69207;47.502;18.940;2023-08-06T04:34:13;3.72;;;2.55;;
65753;SDS011;69207;47.502;18.940;2023-08-06T04:35:15;2.30;;;2.08;;
65753;SDS011;69207;47.502;18.940;2023-08-06T04:36:18;2.30;;;1.90;;
65753;SDS011;69207;47.502;18.940;2023-08-06T04:37:21;3.97;;;2.22;;
65753;SDS011;69207;47.502;18.940;2023-08-06T04:38:24;2.33;;;2.00;;
65753;SDS011;69207;47.502;18.940;2023-08-06T04:39:29;3.47;;;1.40;;
65753;SDS011;69207;47.502;18.940;2023-08-06T04:40:33;1.30;;;1.20;;
65753;SDS011;69207;47.502;18.940;2023-08-06T04:41:36;1.85;;;1.35;;
65753;SDS011;69207;47.502;18.940;2023-08-06T04:42:39;2.67;;;1.30;;
65753;SDS011;69207;47.502;18.940;2023-08-06T04:43:42;1.45;;;1.20;;
65753;SDS011;69207;47.502;18.940;2023-08-06T04:44:45;2.50;;;1.37;;
65753;SDS011;69207;47.502;18.940;2023-08-06T04:45:48;2.55;;;1.08;;
65753;SDS011;69207;47.502;18.940;2023-08-06T04:46:52;1.35;;;1.20;;
65753;SDS011;69207;47.502;18.940;2023-08-06T04:47:55;2.35;;;0.90;;
65753;SDS011;69207;47.502;18.940;2023-08-06T04:48:58;2.75;;;0.93;;
65753;SDS011;69207;47.502;18.940;2023-08-06T04:50:00;1.77;;;1.08;;
65753;SDS011;69207;47.502;18.940;2023-08-06T04:51:03;0.82;;;0.80;;
65753;SDS011;69207;47.502;18.940;2023-08-06T04:52:06;6.03;;;1.23;;
65753;SDS011;69207;47.502;18.940;2023-08-06T04:53:09;0.82;;;0.82;;
65753;SDS011;69207;47.502;18.940;2023-08-06T04:54:13;1.05;;;0.95;;
65753;SDS011;69207;47.502;18.940;2023-08-06T04:55:16;1.10;;;0.75;;
65753;SDS011;69207;47.502;18.940;2023-08-06T04:56:18;1.42;;;1.00;;
65753;SDS011;69207;47.502;18.940;2023-08-06T04:57:21;2.17;;;1.05;;
65753;SDS011;69207;47.502;18.940;2023-08-06T04:58:24;1.80;;;0.55;;
65753;SDS011;69207;47.502;18.940;2023-08-06T04:59:27;1.50;;;0.80;;
65753;SDS011;69207;47.502;18.940;2023-08-06T05:00:29;0.50;;;0.50;;
65753;SDS011;69207;47.502;18.940;2023-08-06T05:01:32;2.22;;;0.50;;
65753;SDS011;69207;47.502;18.940;2023-08-06T05:02:35;0.93;;;0.60;;
65753;SDS011;69207;47.502;18.940;2023-08-06T05:03:40;1.95;;;0.60;;
65753;SDS011;69207;47.502;18.940;2023-08-06T05:04:43;0.88;;;0.50;;
65753;SDS011;69207;47.502;18.940;2023-08-06T05:05:46;0.35;;;0.35;;
65753;SDS011;69207;47.502;18.940;2023-08-06T05:06:48;1.40;;;0.50;;
65753;SDS011;69207;47.502;18.940;2023-08-06T05:07:51;0.32;;;0.28;;
65753;SDS011;69207;47.502;18.940;2023-08-06T05:08:56;0.60;;;0.40;;
65753;SDS011;69207;47.502;18.940;2023-08-06T05:09:59;4.37;;;0.50;;
65753;SDS011;69207;47.502;18.940;2023-08-06T05:11:02;1.75;;;0.40;;
65753;SDS011;69207;47.502;18.940;2023-08-06T05:12:05;5.00;;;0.47;;
65753;SDS011;69207;47.502;18.940;2023-08-06T05:13:08;0.95;;;0.30;;
65753;SDS011;69207;47.502;18.940;2023-08-06T05:14:11;0.30;;;0.20;;
65753;SDS011;69207;47.502;18.940;2023-08-06T05:15:13;0.20;;;0.20;;
65753;SDS011;69207;47.502;18.940;2023-08-06T05:16:16;1.70;;;0.37;;
65753;SDS011;69207;47.502;18.940;2023-08-06T05:17:19;0.20;;;0.20;;
65753;SDS011;69207;47.502;18.940;2023-08-06T05:18:22;0.30;;;0.30;;
65753;SDS011;69207;47.502;18.940;2023-08-06T05:19:24;3.17;;;0.40;;
65753;SDS011;69207;47.502;18.940;2023-08-06T05:20:27;1.12;;;0.30;;
65753;SDS011;69207;47.502;18.940;2023-08-06T05:21:30;0.30;;;0.30;;
65753;SDS011;69207;47.502;18.940;2023-08-06T05:22:33;5.47;;;0.40;;
65753;SDS011;69207;47.502;18.940;2023-08-06T05:23:35;0.35;;;0.20;;
65753;SDS011;69207;47.502;18.940;2023-08-06T05:24:38;0.40;;;0.37;;
65753;SDS011;69207;47.502;18.940;2023-08-06T05:25:41;0.20;;;0.20;;
65753;SDS011;69207;47.502;18.940;2023-08-06T05:26:44;1.52;;;0.25;;
65753;SDS011;69207;47.502;18.940;2023-08-06T05:27:50;1.00;;;0.20;;
65753;SDS011;69207;47.502;18.940;2023-08-06T05:28:53;0.57;;;0.22;;
65753;SDS011;69207;47.502;18.940;2023-08-06T05:29:55;0.45;;;0.20;;
65753;SDS011;69207;47.502;18.940;2023-08-06T05:30:58;0.85;;;0.20;;
65753;SDS011;69207;47.502;18.940;2023-08-06T05:32:05;0.43;;;0.20;;
65753;SDS011;69207;47.502;18.940;2023-08-06T05:33:08;1.35;;;0.20;;
65753;SDS011;69207;47.502;18.940;2023-08-06T05:34:11;0.13;;;0.13;;
65753;SDS011;69207;47.502;18.940;2023-08-06T05:35:13;0.32;;;0.15;;
65753;SDS011;69207;47.502;18.940;2023-08-06T05:36:16;1.10;;;0.20;;
65753;SDS011;69207;47.502;18.940;2023-08-06T05:37:20;0.10;;;0.10;;
65753;SDS011;69207;47.502;18.940;2023-08-06T05:38:22;0.20;;;0.20;;
65753;SDS011;69207;47.502;18.940;2023-08-06T05:39:25;1.85;;;0.25;;
65753;SDS011;69207;47.502;18.940;2023-08-06T05:40:28;0.30;;;0.30;;
65753;SDS011;69207;47.502;18.940;2023-08-06T05:41:31;0.20;;;0.20;;
65753;SDS011;69207;47.502;18.940;2023-08-06T05:42:33;0.10;;;0.10;;
65753;SDS011;69207;47.502;18.940;2023-08-06T05:43:36;0.10;;;0.10;;
65753;SDS011;69207;47.502;18.940;2023-08-06T05:44:39;1.70;;;0.10;;
65753;SDS011;69207;47.502;18.940;2023-08-06T05:45:45;0.25;;;0.20;;
65753;SDS011;69207;47.502;18.940;2023-08-06T05:46:49;0.20;;;0.20;;
65753;SDS011;69207;47.502;18.940;2023-08-06T05:47:52;0.13;;;0.13;;
65753;SDS011;69207;47.502;18.940;2023-08-06T05:48:56;0.10;;;0.10;;
65753;SDS011;69207;47.502;18.940;2023-08-06T05:49:59;0.10;;;0.10;;
65753;SDS011;69207;47.502;18.940;2023-08-06T05:51:02;0.10;;;0.10;;
65753;SDS011;69207;47.502;18.940;2023-08-06T05:52:05;0.10;;;0.10;;
65753;SDS011;69207;47.502;18.940;2023-08-06T05:53:08;0.93;;;0.17;;
65753;SDS011;69207;47.502;18.940;2023-08-06T05:54:11;0.98;;;0.20;;
65753;SDS011;69207;47.502;18.940;2023-08-06T05:55:14;1.90;;;0.40;;
65753;SDS011;69207;47.502;18.940;2023-08-06T05:56:17;0.20;;;0.20;;
65753;SDS011;69207;47.502;18.940;2023-08-06T05:57:19;0.20;;;0.20;;
65753;SDS011;69207;47.502;18.940;2023-08-06T05:58:22;0.20;;;0.20;;
65753;SDS011;69207;47.502;18.940;2023-08-06T05:59:28;1.48;;;0.30;;
65753;SDS011;69207;47.502;18.940;2023-08-06T06:00:31;0.25;;;0.25;;
65753;SDS011;69207;47.502;18.940;2023-08-06T06:01:33;0.20;;;0.20;;
65753;SDS011;69207;47.502;18.940;2023-08-06T06:02:36;0.28;;;0.28;;
65753;SDS011;69207;47.502;18.940;2023-08-06T06:03:39;0.77;;;0.37;;
65753;SDS011;69207;47.502;18.940;2023-08-06T06:04:42;0.30;;;0.30;;
65753;SDS011;69207;47.502;18.940;2023-08-06T06:05:44;0.30;;;0.30;;
65753;SDS011;69207;47.502;18.940;2023-08-06T06:06:47;0.45;;;0.30;;
65753;SDS011;69207;47.502;18.940;2023-08-06T06:07:50;0.75;;;0.30;;
65753;SDS011;69207;47.502;18.940;2023-08-06T06:08:53;0.25;;;0.25;;
65753;SDS011;69207;47.502;18.940;2023-08-06T06:09:56;2.87;;;0.45;;
65753;SDS011;69207;47.502;18.940;2023-08-06T06:10:58;1.00;;;0.40;;
65753;SDS011;69207;47.502;18.940;2023-08-06T06:12:01;0.30;;;0.30;;
65753;SDS011;69207;47.502;18.940;2023-08-06T06:13:04;2.20;;;0.20;;
65753;SDS011;69207;47.502;18.940;2023-08-06T06:14:11;0.50;;;0.50;;
65753;SDS011;69207;47.502;18.940;2023-08-06T06:15:14;3.30;;;0.60;;
65753;SDS011;69207;47.502;18.940;2023-08-06T06:16:16;0.43;;;0.40;;
65753;SDS011;69207;47.502;18.940;2023-08-06T06:17:20;0.30;;;0.30;;
65753;SDS011;69207;47.502;18.940;2023-08-06T06:18:22;0.30;;;0.30;;
65753;SDS011;69207;47.502;18.940;2023-08-06T06:19:25;1.08;;;0.30;;
65753;SDS011;69207;47.502;18.940;2023-08-06T06:20:31;3.62;;;0.40;;
65753;SDS011;69207;47.502;18.940;2023-08-06T06:21:35;0.50;;;0.50;;
65753;SDS011;69207;47.502;18.940;2023-08-06T06:22:38;1.95;;;0.60;;
65753;SDS011;69207;47.502;18.940;2023-08-06T06:23:41;5.05;;;0.70;;